Time;durP1;ratioP1;P1;durP2;ratioP2;P2;SDS_P1;SDS_P2;PMS_P1;PMS_P2;Temp;Humidity;BMP_temperature;BMP_pressure;BME280_temperature;BME280_humidity;BME280_pressure;Samples;Min_cycle;Max_cycle;Signal;HPM_P1;HPM_P2
2022/06/13 00:00:57;;;;;;;4.20;2.23;;;15.80;99.90;;;;;;5082701;28;20532;-83
2022/06/13 00:03:25;;;;;;;5.07;2.13;;;15.70;99.90;;;;;;5082518;28;20461;-83
2022/06/13 00:05:52;;;;;;;5.73;2.10;;;15.60;99.90;;;;;;5082942;28;20520;-82
2022/06/13 00:08:19;;;;;;;6.00;2.17;;;15.60;99.90;;;;;;5082635;28;20495;-81
2022/06/13 00:10:46;;;;;;;3.70;1.80;;;15.50;99.90;;;;;;5082442;28;20887;-81
2022/06/13 00:13:13;;;;;;;4.57;2.00;;;15.50;99.90;;;;;;5081783;28;20446;-81
2022/06/13 00:15:40;;;;;;;4.43;1.83;;;15.50;99.90;;;;;;5081818;28;20526;-82
2022/06/13 00:18:07;;;;;;;4.97;1.63;;;15.50;99.90;;;;;;5082017;28;20549;-82
2022/06/13 00:20:36;;;;;;;5.43;1.90;;;15.40;99.90;;;;;;5082089;28;20503;-83
2022/06/13 00:23:03;;;;;;;6.50;1.90;;;15.40;99.90;;;;;;5081561;28;20595;-81
2022/06/13 00:25:30;;;;;;;5.30;2.03;;;15.30;99.90;;;;;;5081561;28;20485;-83
2022/06/13 00:27:56;;;;;;;4.37;1.87;;;15.30;99.90;;;;;;5082222;28;20502;-81
2022/06/13 00:30:24;;;;;;;4.10;2.17;;;15.30;99.90;;;;;;5082198;28;20454;-80
2022/06/13 00:32:51;;;;;;;4.60;2.00;;;15.20;99.90;;;;;;5081301;28;20454;-82
2022/06/13 00:35:18;;;;;;;6.97;2.50;;;15.20;99.90;;;;;;5081778;28;20446;-82
2022/06/13 00:37:47;;;;;;;5.00;2.27;;;15.10;99.90;;;;;;5079997;28;20953;-80
2022/06/13 00:40:14;;;;;;;8.30;2.10;;;15.00;99.90;;;;;;5079595;28;20452;-81
2022/06/13 00:42:42;;;;;;;3.63;2.10;;;15.00;99.90;;;;;;5080111;28;20458;-81
2022/06/13 00:45:13;;;;;;;4.00;2.37;;;14.90;99.90;;;;;;5080457;28;20565;-82
2022/06/13 00:47:43;;;;;;;3.60;2.60;;;14.90;99.90;;;;;;5080101;28;20538;-81
2022/06/13 00:50:14;;;;;;;3.30;1.90;;;14.90;99.90;;;;;;5079604;28;20517;-82
2022/06/13 00:52:45;;;;;;;3.80;2.13;;;14.80;99.90;;;;;;5079912;28;20534;-82
2022/06/13 00:55:21;;;;;;;6.30;2.40;;;14.90;99.90;;;;;;5080762;28;20821;-82
2022/06/13 00:57:48;;;;;;;4.60;2.50;;;14.80;99.90;;;;;;5079833;28;20478;-82
2022/06/13 01:00:18;;;;;;;4.63;2.20;;;14.80;99.90;;;;;;5079237;28;20437;-82
2022/06/13 01:02:47;;;;;;;8.07;2.40;;;14.70;99.90;;;;;;5078937;28;20540;-82
2022/06/13 01:05:17;;;;;;;3.63;2.13;;;14.70;99.90;;;;;;5079475;28;20482;-81
2022/06/13 01:07:45;;;;;;;4.10;1.90;;;14.70;99.90;;;;;;5078432;28;20455;-82
2022/06/13 01:12:59;;;;;;;6.57;2.60;;;14.70;99.90;;;;;;5078858;28;20428;-82
2022/06/13 01:16:02;;;;;;;4.37;1.97;;;14.60;99.90;;;;;;5079186;28;20535;-82
2022/06/13 01:18:49;;;;;;;6.17;2.00;;;14.60;99.90;;;;;;5079372;28;20528;-81
2022/06/13 01:21:27;;;;;;;5.40;2.03;;;14.50;99.90;;;;;;5079569;28;20543;-82
2022/06/13 01:24:34;;;;;;;5.83;2.40;;;14.50;99.90;;;;;;5079507;28;20470;-81
2022/06/13 01:27:47;;;;;;;5.63;2.70;;;14.50;99.90;;;;;;5078552;28;20448;-82
2022/06/13 01:30:46;;;;;;;4.67;1.97;;;14.40;99.90;;;;;;5079096;28;20466;-81
2022/06/13 01:33:20;;;;;;;5.70;2.43;;;14.40;99.90;;;;;;5078934;28;20454;-82
2022/06/13 01:35:57;;;;;;;4.63;2.50;;;14.30;99.90;;;;;;5079554;28;20478;-81
2022/06/13 01:38:39;;;;;;;5.47;2.73;;;14.30;99.90;;;;;;5079525;28;20470;-82
2022/06/13 01:41:13;;;;;;;3.97;2.40;;;14.30;99.90;;;;;;5078887;28;20477;-83
2022/06/13 01:43:51;;;;;;;5.33;2.93;;;14.30;99.90;;;;;;5079789;28;20545;-80
2022/06/13 01:46:29;;;;;;;3.60;2.30;;;14.20;99.90;;;;;;5079707;28;20520;-83
2022/06/13 01:49:05;;;;;;;7.50;2.23;;;14.20;99.90;;;;;;5080541;28;20471;-81
2022/06/13 01:51:39;;;;;;;5.63;2.77;;;14.20;99.90;;;;;;5081059;28;20509;-83
2022/06/13 01:54:20;;;;;;;3.67;2.00;;;14.10;99.90;;;;;;5080233;28;20473;-82
2022/06/13 01:56:55;;;;;;;3.70;2.50;;;14.20;99.90;;;;;;5080872;28;20473;-83
2022/06/13 01:59:27;;;;;;;4.23;2.20;;;14.20;99.90;;;;;;5079223;28;20507;-81
2022/06/13 02:02:03;;;;;;;5.40;2.37;;;14.30;99.90;;;;;;5078611;28;20448;-81
2022/06/13 02:04:36;;;;;;;4.83;2.50;;;14.30;99.90;;;;;;5078223;28;20539;-82
2022/06/13 02:07:07;;;;;;;6.43;2.83;;;14.40;99.90;;;;;;5079361;28;20882;-82
2022/06/13 02:09:39;;;;;;;5.17;3.10;;;14.40;99.90;;;;;;5078308;28;20554;-82
2022/06/13 02:12:06;;;;;;;5.97;2.43;;;14.50;99.90;;;;;;5077976;28;20450;-81
2022/06/13 02:14:38;;;;;;;9.00;2.57;;;14.60;99.90;;;;;;5077942;28;20542;-80
2022/06/13 02:17:11;;;;;;;6.83;2.97;;;14.60;99.90;;;;;;5078700;28;20461;-81
2022/06/13 02:19:43;;;;;;;3.80;2.20;;;14.60;99.90;;;;;;5077856;28;20476;-81
2022/06/13 02:22:12;;;;;;;5.30;2.73;;;14.60;99.90;;;;;;5078242;28;20452;-81
2022/06/13 02:24:42;;;;;;;6.33;2.10;;;14.60;99.90;;;;;;5077809;28;20520;-81
2022/06/13 02:27:13;;;;;;;8.40;2.70;;;14.60;99.90;;;;;;5077688;28;20543;-82
2022/06/13 02:29:50;;;;;;;6.33;2.67;;;14.50;99.90;;;;;;5077808;28;20510;-82
2022/06/13 02:32:23;;;;;;;6.50;2.53;;;14.50;99.90;;;;;;5079196;28;20539;-82
2022/06/13 02:34:55;;;;;;;9.77;3.20;;;14.50;99.90;;;;;;5077419;28;20445;-82
2022/06/13 02:37:27;;;;;;;8.90;2.70;;;14.50;99.90;;;;;;5077926;28;20897;-81
2022/06/13 02:40:00;;;;;;;4.90;2.83;;;14.50;99.90;;;;;;5077067;28;20517;-81
2022/06/13 02:42:32;;;;;;;6.43;2.53;;;14.50;99.90;;;;;;5077948;28;20539;-80
2022/06/13 02:45:03;;;;;;;6.57;2.90;;;14.50;99.90;;;;;;5077921;28;20584;-83
2022/06/13 02:47:36;;;;;;;6.10;2.87;;;14.50;99.90;;;;;;5077208;28;20521;-82
2022/06/13 02:50:09;;;;;;;4.77;2.53;;;14.40;99.90;;;;;;5077917;28;20531;-82
2022/06/13 02:52:41;;;;;;;5.13;2.33;;;14.40;99.90;;;;;;5078113;28;20546;-82
2022/06/13 02:55:12;;;;;;;9.47;3.80;;;14.50;99.90;;;;;;5078052;28;20447;-82
2022/06/13 02:57:59;;;;;;;6.53;2.70;;;14.40;99.90;;;;;;5077554;28;20913;-81
2022/06/13 03:00:36;;;;;;;6.43;3.40;;;14.40;99.90;;;;;;5077786;28;20521;-82
2022/06/13 03:03:18;;;;;;;5.30;3.10;;;14.40;99.90;;;;;;5077126;28;20554;-83
2022/06/13 03:05:55;;;;;;;6.23;2.43;;;14.40;99.90;;;;;;5077308;28;20577;-82
2022/06/13 03:08:33;;;;;;;5.40;2.47;;;14.40;99.90;;;;;;5077507;28;20548;-81
2022/06/13 03:11:13;;;;;;;5.63;3.50;;;14.40;99.90;;;;;;5078110;28;20515;-82
2022/06/13 03:13:50;;;;;;;7.03;3.23;;;14.40;99.90;;;;;;5077740;28;20448;-82
2022/06/13 03:16:25;;;;;;;5.57;2.80;;;14.40;99.90;;;;;;5077647;28;20526;-80
2022/06/13 03:19:01;;;;;;;6.87;3.27;;;14.50;99.90;;;;;;5077757;28;20562;-82
2022/06/13 03:21:34;;;;;;;6.87;2.73;;;14.60;99.90;;;;;;5078064;28;20482;-80
2022/06/13 03:24:06;;;;;;;6.60;3.23;;;14.60;99.90;;;;;;5077261;28;20508;-81
2022/06/13 03:26:40;;;;;;;10.63;3.30;;;14.60;99.90;;;;;;5077389;28;20522;-82
2022/06/13 03:29:14;;;;;;;5.53;2.43;;;14.70;99.90;;;;;;5077511;28;20574;-82
2022/06/13 03:31:47;;;;;;;6.10;2.90;;;14.80;99.90;;;;;;5076951;28;20539;-82
2022/06/13 03:34:19;;;;;;;6.53;3.27;;;14.80;99.90;;;;;;5077333;28;20909;-83
2022/06/13 03:36:51;;;;;;;8.07;3.47;;;14.90;99.90;;;;;;5077794;28;20540;-80
2022/06/13 03:39:22;;;;;;;6.20;2.70;;;15.00;99.90;;;;;;5076272;28;20478;-81
2022/06/13 03:41:53;;;;;;;7.10;2.57;;;15.00;99.90;;;;;;5077853;28;20563;-83
2022/06/13 03:44:29;;;;;;;6.47;3.30;;;15.10;99.90;;;;;;5077352;28;20457;-81
2022/06/13 03:47:00;;;;;;;13.23;3.67;;;15.00;99.90;;;;;;5076884;28;20493;-81
2022/06/13 03:49:33;;;;;;;9.60;3.30;;;15.10;99.90;;;;;;5076973;28;20475;-80
2022/06/13 03:52:02;;;;;;;6.00;2.90;;;15.10;99.90;;;;;;5076910;28;20516;-82
2022/06/13 03:54:35;;;;;;;8.20;3.47;;;15.20;99.90;;;;;;5076773;28;20530;-81
2022/06/13 03:57:07;;;;;;;7.17;3.57;;;15.20;99.90;;;;;;5077516;28;20457;-81
2022/06/13 03:59:41;;;;;;;9.63;3.73;;;15.30;99.90;;;;;;5077027;28;20473;-81
2022/06/13 04:02:11;;;;;;;8.70;3.57;;;15.30;99.90;;;;;;5076753;28;20887;-82
2022/06/13 04:04:41;;;;;;;10.43;3.00;;;15.30;99.90;;;;;;5076653;28;20469;-82
2022/06/13 04:07:08;;;;;;;6.60;3.33;;;15.40;99.90;;;;;;5077290;28;20481;-83
2022/06/13 04:09:38;;;;;;;8.07;3.00;;;15.40;99.90;;;;;;5077360;28;21044;-82
2022/06/13 04:12:25;;;;;;;12.83;3.10;;;15.40;99.90;;;;;;5076982;28;20454;-80
2022/06/13 04:15:08;;;;;;;7.83;3.27;;;15.50;99.90;;;;;;5077241;28;20503;-80
2022/06/13 04:17:42;;;;;;;8.00;3.07;;;15.50;99.90;;;;;;5076610;28;20982;-79
2022/06/13 04:20:23;;;;;;;12.33;3.73;;;15.50;99.90;;;;;;5076651;28;20470;-80
2022/06/13 04:22:55;;;;;;;7.70;3.27;;;15.50;99.90;;;;;;5076069;28;20449;-80
2022/06/13 04:25:26;;;;;;;7.30;3.13;;;15.60;99.90;;;;;;5076536;28;20482;-80
2022/06/13 04:28:01;;;;;;;6.53;3.50;;;15.60;99.90;;;;;;5076227;28;20454;-81
2022/06/13 04:30:31;;;;;;;9.40;4.17;;;15.60;99.90;;;;;;5107906;22;20596;-79
2022/06/13 04:33:04;;;;;;;7.50;3.37;;;15.70;99.90;;;;;;5080066;28;20522;-77
2022/06/13 04:35:34;;;;;;;9.73;3.53;;;15.70;99.90;;;;;;5075037;28;20470;-78
2022/06/13 04:38:04;;;;;;;6.83;3.20;;;15.70;99.90;;;;;;5074986;28;20559;-79
2022/06/13 04:40:33;;;;;;;7.47;2.97;;;15.70;99.90;;;;;;5073972;28;20463;-77
2022/06/13 04:43:01;;;;;;;7.67;3.20;;;15.80;99.90;;;;;;5076013;28;20443;-78
2022/06/13 04:45:34;;;;;;;5.90;2.70;;;15.90;99.90;;;;;;5078752;28;20483;-77
2022/06/13 04:48:01;;;;;;;7.73;3.77;;;15.90;99.90;;;;;;5081829;28;20523;-79
2022/06/13 04:50:32;;;;;;;5.50;3.10;;;15.90;99.90;;;;;;5086374;28;20470;-79
2022/06/13 04:53:02;;;;;;;5.57;3.43;;;15.90;99.90;;;;;;5080541;28;20482;-77
2022/06/13 04:55:34;;;;;;;5.20;2.50;;;15.90;99.90;;;;;;5081599;28;20898;-78
2022/06/13 04:58:01;;;;;;;5.80;3.20;;;15.90;99.90;;;;;;5080660;28;20538;-79
2022/06/13 05:00:30;;;;;;;8.07;3.37;;;15.90;99.90;;;;;;5080022;28;20580;-76
2022/06/13 05:02:58;;;;;;;12.73;4.50;;;15.90;99.90;;;;;;5075522;28;20504;-77
2022/06/13 05:05:38;;;;;;;12.00;4.50;;;15.90;99.90;;;;;;5074495;28;20533;-77
2022/06/13 05:08:14;;;;;;;9.90;4.57;;;15.70;99.90;;;;;;5074222;28;20447;-78
2022/06/13 05:10:44;;;;;;;9.07;4.23;;;15.50;99.90;;;;;;5074119;28;20474;-77
2022/06/13 05:13:11;;;;;;;13.63;6.07;;;15.40;99.90;;;;;;5074625;28;20488;-78
2022/06/13 05:15:39;;;;;;;10.20;5.90;;;15.30;99.90;;;;;;5074516;28;21033;-78
2022/06/13 05:18:26;;;;;;;11.33;5.30;;;15.00;99.90;;;;;;5075110;28;20494;-77
2022/06/13 05:21:07;;;;;;;16.10;6.60;;;14.80;99.90;;;;;;5076196;28;20499;-79
2022/06/13 05:23:53;;;;;;;12.70;5.70;;;14.60;99.90;;;;;;5074927;28;20514;-79
2022/06/13 05:26:27;;;;;;;18.07;6.40;;;14.70;99.90;;;;;;5075088;28;20932;-76
2022/06/13 05:28:54;;;;;;;9.90;6.00;;;14.60;99.90;;;;;;5075059;28;20846;-78
2022/06/13 05:31:21;;;;;;;10.97;5.30;;;14.60;99.90;;;;;;5075355;28;20500;-77
2022/06/13 05:33:50;;;;;;;10.77;6.27;;;14.60;99.90;;;;;;5074362;28;20869;-78
2022/06/13 05:36:19;;;;;;;13.60;7.30;;;14.60;99.90;;;;;;5075306;28;20527;-78
2022/06/13 05:38:49;;;;;;;11.27;5.50;;;14.50;99.90;;;;;;5075498;28;20457;-77
2022/06/13 05:41:16;;;;;;;13.23;7.20;;;14.50;99.90;;;;;;5074731;28;20792;-79
2022/06/13 05:43:43;;;;;;;13.53;7.17;;;14.50;99.90;;;;;;5079900;28;20452;-78
2022/06/13 05:46:17;;;;;;;12.93;7.00;;;14.40;99.90;;;;;;5081294;28;20570;-80
2022/06/13 05:48:44;;;;;;;12.80;6.30;;;14.40;99.90;;;;;;5081513;28;20441;-78
2022/06/13 05:51:11;;;;;;;12.53;7.50;;;14.30;99.90;;;;;;5077501;28;20450;-77
2022/06/13 05:53:38;;;;;;;25.13;11.27;;;14.30;99.90;;;;;;5075978;28;20453;-77
2022/06/13 05:56:07;;;;;;;16.00;11.40;;;14.20;99.90;;;;;;5076416;28;20460;-78
2022/06/13 05:58:33;;;;;;;15.93;10.30;;;14.00;99.90;;;;;;5077168;28;20537;-78
2022/06/13 06:01:01;;;;;;;14.57;9.27;;;14.00;99.90;;;;;;5076493;28;20518;-78
2022/06/13 06:03:29;;;;;;;17.00;11.20;;;14.00;99.90;;;;;;5076678;28;20442;-79
2022/06/13 06:05:57;;;;;;;21.07;9.50;;;14.00;99.90;;;;;;5077777;28;20553;-79
2022/06/13 06:08:26;;;;;;;19.60;9.90;;;13.90;99.90;;;;;;5078738;28;20573;-79
2022/06/13 06:10:54;;;;;;;14.57;8.00;;;14.00;99.90;;;;;;5077187;28;20510;-78
2022/06/13 06:13:23;;;;;;;13.63;8.47;;;14.00;99.90;;;;;;5077701;28;20506;-78
2022/06/13 06:15:52;;;;;;;21.03;9.90;;;14.10;99.90;;;;;;5077556;28;20536;-77
2022/06/13 06:18:20;;;;;;;13.47;9.53;;;14.20;99.90;;;;;;5077725;28;20470;-79
2022/06/13 06:20:47;;;;;;;16.13;9.37;;;14.30;99.90;;;;;;5078597;28;20502;-78
2022/06/13 06:23:14;;;;;;;12.07;8.90;;;14.50;99.90;;;;;;5078964;28;20499;-79
2022/06/13 06:25:43;;;;;;;12.90;9.10;;;14.60;99.90;;;;;;5078522;28;20527;-78
2022/06/13 06:28:16;;;;;;;16.80;8.53;;;14.70;99.90;;;;;;5077759;28;20458;-78
2022/06/13 06:30:44;;;;;;;15.43;8.83;;;14.80;99.90;;;;;;5077727;28;20568;-79
2022/06/13 06:33:11;;;;;;;14.63;9.37;;;14.70;99.90;;;;;;5076570;28;20451;-78
2022/06/13 06:35:39;;;;;;;14.70;9.60;;;14.80;99.90;;;;;;5078552;28;20455;-78
2022/06/13 06:38:07;;;;;;;21.93;11.50;;;15.00;99.90;;;;;;5080846;28;20489;-77
2022/06/13 06:40:34;;;;;;;14.73;10.07;;;15.00;99.90;;;;;;5073332;28;20477;-78
2022/06/13 06:43:01;;;;;;;18.43;9.80;;;15.10;99.90;;;;;;5073465;28;20546;-79
2022/06/13 06:45:28;;;;;;;13.67;10.03;;;15.20;99.90;;;;;;5074547;28;20492;-77
2022/06/13 06:47:57;;;;;;;15.20;9.07;;;15.30;99.90;;;;;;5074010;28;20502;-77
2022/06/13 06:50:26;;;;;;;12.77;9.00;;;15.20;99.90;;;;;;5074592;28;20473;-78
2022/06/13 06:52:54;;;;;;;17.53;9.80;;;15.30;99.90;;;;;;5072907;28;20591;-79
2022/06/13 07:00:52;;;;;;;11.77;7.27;;;15.40;99.90;;;;;;5072423;28;20454;-77
2022/06/13 07:03:20;;;;;;;16.90;7.57;;;15.40;99.90;;;;;;5072673;28;20537;-78
2022/06/13 07:05:47;;;;;;;13.00;6.67;;;15.30;99.90;;;;;;5071603;28;20520;-77
2022/06/13 07:08:15;;;;;;;11.30;6.13;;;15.20;99.90;;;;;;5072220;28;20453;-78
2022/06/13 07:10:45;;;;;;;14.63;7.30;;;15.30;99.90;;;;;;5072438;28;20849;-77
2022/06/13 07:13:12;;;;;;;12.07;6.80;;;15.50;99.90;;;;;;5071773;28;20887;-80
2022/06/13 07:15:40;;;;;;;13.07;7.93;;;15.70;99.90;;;;;;5072432;28;20476;-77
2022/06/13 07:18:07;;;;;;;16.73;7.07;;;15.80;99.90;;;;;;5072182;28;20492;-78
2022/06/13 07:20:36;;;;;;;9.13;5.90;;;16.00;99.90;;;;;;5072289;28;20899;-77
2022/06/13 07:23:03;;;;;;;14.70;9.20;;;16.10;99.90;;;;;;5072062;28;20864;-78
2022/06/13 07:25:32;;;;;;;16.67;8.40;;;16.30;99.90;;;;;;5072921;28;20493;-78
2022/06/13 07:27:59;;;;;;;12.20;7.53;;;16.40;99.90;;;;;;5072126;28;21069;-78
2022/06/13 07:30:29;;;;;;;15.33;8.50;;;16.50;99.90;;;;;;5072046;28;20561;-78
2022/06/13 07:32:57;;;;;;;12.40;7.33;;;16.70;99.90;;;;;;5072546;28;20609;-78
2022/06/13 07:35:25;;;;;;;20.47;8.50;;;16.80;99.90;;;;;;5072531;28;20553;-77
2022/06/13 07:40:38;;;;;;;27.07;14.00;;;17.10;99.90;;;;;;5072603;28;20540;-79
2022/06/13 07:43:07;;;;;;;18.23;12.20;;;17.00;99.90;;;;;;5073613;28;20915;-77
2022/06/13 07:45:39;;;;;;;23.73;15.30;;;17.20;99.90;;;;;;5073960;28;20473;-80
2022/06/13 07:48:08;;;;;;;24.27;16.57;;;17.40;99.90;;;;;;5074168;28;20467;-79
2022/06/13 07:50:35;;;;;;;23.93;15.23;;;17.40;99.90;;;;;;5073622;28;20545;-78
2022/06/13 07:53:03;;;;;;;22.13;15.43;;;17.30;99.90;;;;;;5073849;28;20481;-79
2022/06/13 07:55:32;;;;;;;22.57;14.40;;;17.50;99.90;;;;;;5073911;28;20546;-78
2022/06/13 07:58:00;;;;;;;19.97;15.80;;;17.80;99.90;;;;;;5073734;28;20450;-80
2022/06/13 08:00:31;;;;;;;21.43;18.07;;;18.00;99.90;;;;;;5073582;28;20975;-79
2022/06/13 08:02:59;;;;;;;21.67;15.43;;;18.20;99.90;;;;;;5074171;28;20888;-79
2022/06/13 08:05:26;;;;;;;21.70;15.60;;;18.30;99.90;;;;;;5074991;28;20860;-79
2022/06/13 08:07:53;;;;;;;21.37;16.93;;;18.40;99.90;;;;;;5073751;28;20914;-80
2022/06/13 08:10:21;;;;;;;20.43;14.17;;;18.20;99.90;;;;;;5073202;28;21042;-80
2022/06/13 08:12:48;;;;;;;22.90;16.30;;;18.30;99.90;;;;;;5073899;28;20540;-78
2022/06/13 08:15:16;;;;;;;17.60;14.17;;;18.40;99.90;;;;;;5074276;28;20470;-80
2022/06/13 08:17:43;;;;;;;25.67;16.53;;;18.50;99.90;;;;;;5077493;28;20538;-78
2022/06/13 08:20:11;;;;;;;18.77;14.77;;;18.60;99.90;;;;;;5079157;28;20840;-79
2022/06/13 08:22:43;;;;;;;19.80;16.80;;;18.70;99.90;;;;;;5078471;28;20453;-79
2022/06/13 08:25:16;;;;;;;23.57;17.27;;;18.70;99.90;;;;;;5078365;28;20466;-79
2022/06/13 08:27:44;;;;;;;17.50;14.00;;;19.10;99.90;;;;;;5079247;28;20587;-79
2022/06/13 08:30:12;;;;;;;18.80;14.60;;;19.10;99.90;;;;;;5078973;28;20563;-78
2022/06/13 08:32:38;;;;;;;20.47;13.07;;;19.00;99.90;;;;;;5079640;28;20452;-79
2022/06/13 08:35:06;;;;;;;19.30;16.10;;;18.90;99.90;;;;;;5079897;28;20919;-79
2022/06/13 08:37:33;;;;;;;22.00;16.27;;;19.10;99.90;;;;;;5079297;28;20459;-79
2022/06/13 08:40:00;;;;;;;16.17;12.83;;;19.10;99.90;;;;;;5079786;28;20468;-80
2022/06/13 08:42:33;;;;;;;19.63;12.27;;;19.70;99.90;;;;;;5086689;28;20483;-79
2022/06/13 08:45:05;;;;;;;16.40;10.67;;;19.90;99.90;;;;;;5082206;28;20427;-80
2022/06/13 08:47:45;;;;;;;14.13;9.80;;;19.80;99.90;;;;;;5080095;28;20471;-80
2022/06/13 08:50:28;;;;;;;14.73;9.73;;;19.70;99.90;;;;;;5079480;28;20561;-78
2022/06/13 08:52:57;;;;;;;13.90;10.30;;;19.80;99.90;;;;;;5078299;28;20996;-77
2022/06/13 08:55:34;;;;;;;17.43;10.70;;;19.70;99.90;;;;;;5074759;28;20457;-78
2022/06/13 08:58:12;;;;;;;15.67;8.90;;;19.50;99.90;;;;;;5074694;28;20445;-78
2022/06/13 09:00:48;;;;;;;20.13;10.07;;;19.60;99.90;;;;;;5074761;28;20475;-78
2022/06/13 09:03:19;;;;;;;15.50;10.67;;;19.70;99.90;;;;;;5074404;28;20522;-79
2022/06/13 09:05:52;;;;;;;15.83;11.00;;;19.80;99.90;;;;;;5074682;28;20450;-77
2022/06/13 09:08:26;;;;;;;13.90;7.97;;;19.90;99.90;;;;;;5074296;28;20517;-79
2022/06/13 09:11:00;;;;;;;12.17;7.53;;;20.20;99.90;;;;;;5073972;28;20479;-77
2022/06/13 09:13:35;;;;;;;13.17;8.00;;;20.30;99.90;;;;;;5074498;28;20458;-78
2022/06/13 09:16:08;;;;;;;12.20;7.60;;;20.20;99.90;;;;;;5074369;28;20537;-78
2022/06/13 09:18:45;;;;;;;11.00;6.37;;;19.80;99.90;;;;;;5074514;28;21029;-77
2022/06/13 09:21:19;;;;;;;11.70;6.03;;;19.70;99.90;;;;;;5074912;28;20903;-77
2022/06/13 09:23:56;;;;;;;10.40;5.20;;;19.50;99.90;;;;;;5074491;28;20538;-77
2022/06/13 09:26:30;;;;;;;9.90;6.10;;;19.30;99.90;;;;;;5074418;28;20446;-77
2022/06/13 09:29:07;;;;;;;11.47;5.43;;;19.40;99.90;;;;;;5073345;28;20565;-76
2022/06/13 09:31:41;;;;;;;16.30;5.80;;;19.50;99.90;;;;;;5074410;28;21048;-76
2022/06/13 09:34:11;;;;;;;9.03;4.70;;;19.80;99.90;;;;;;5074011;28;20533;-78
2022/06/13 09:36:46;;;;;;;12.47;4.20;;;20.00;99.90;;;;;;5074730;28;20542;-78
2022/06/13 09:39:15;;;;;;;9.20;4.13;;;19.80;99.90;;;;;;5073291;28;20883;-78
2022/06/13 09:41:56;;;;;;;6.90;4.23;;;19.70;99.90;;;;;;5073805;28;21119;-77
2022/06/13 09:44:35;;;;;;;11.30;4.80;;;19.50;99.90;;;;;;5073317;28;20454;-77
2022/06/13 09:47:15;;;;;;;7.23;4.10;;;19.20;99.90;;;;;;5073641;28;21007;-77
2022/06/13 09:49:54;;;;;;;9.30;3.80;;;19.10;99.90;;;;;;5073136;28;20557;-76
2022/06/13 09:52:30;;;;;;;9.50;4.00;;;18.90;99.90;;;;;;5073670;28;20531;-77
2022/06/13 09:55:06;;;;;;;11.40;4.50;;;18.80;99.90;;;;;;5073577;28;20531;-76
2022/06/13 09:57:40;;;;;;;19.90;5.47;;;18.90;99.90;;;;;;5073441;28;20841;-77
2022/06/13 10:00:16;;;;;;;6.07;3.60;;;19.60;99.90;;;;;;5073139;28;20605;-76
2022/06/13 10:02:52;;;;;;;7.90;3.73;;;20.90;99.90;;;;;;5073278;28;20454;-77
2022/06/13 10:05:33;;;;;;;8.27;3.77;;;21.80;99.90;;;;;;5073382;28;20539;-77
2022/06/13 10:08:08;;;;;;;7.63;3.63;;;22.00;99.90;;;;;;5073101;28;20864;-77
2022/06/13 10:10:46;;;;;;;10.30;4.07;;;22.00;99.90;;;;;;5073030;28;20475;-78
2022/06/13 10:13:23;;;;;;;6.40;2.67;;;22.60;99.90;;;;;;5072972;28;20545;-77
2022/06/13 10:16:05;;;;;;;4.80;2.50;;;24.00;99.90;;;;;;5073090;28;20561;-76
2022/06/13 10:18:54;;;;;;;7.83;3.40;;;24.40;99.90;;;;;;5073167;28;20449;-77
2022/06/13 10:21:30;;;;;;;6.37;3.73;;;24.70;99.90;;;;;;5073363;28;20471;-77
2022/06/13 10:24:09;;;;;;;7.47;2.60;;;24.60;99.90;;;;;;5075155;28;20459;-77
2022/06/13 10:26:46;;;;;;;8.50;2.97;;;24.60;99.90;;;;;;5082123;28;20451;-77
2022/06/13 10:29:36;;;;;;;6.93;2.43;;;24.00;99.90;;;;;;5100337;22;20569;-81
2022/06/13 10:32:23;;;;;;;6.37;2.37;;;23.70;99.90;;;;;;5055741;28;20872;-83
2022/06/13 10:35:06;;;;;;;10.23;3.50;;;23.70;99.90;;;;;;5055933;28;20564;-82
2022/06/13 10:37:42;;;;;;;6.27;2.10;;;23.20;99.90;;;;;;5056698;28;20527;-82
2022/06/13 10:40:10;;;;;;;4.97;1.50;;;22.70;99.90;;;;;;5055557;28;20540;-81
2022/06/13 10:42:38;;;;;;;7.33;2.63;;;22.50;99.90;;;;;;5057692;28;20501;-82
2022/06/13 10:45:07;;;;;;;5.00;1.90;;;22.40;99.90;;;;;;5059145;28;20436;-82
2022/06/13 10:47:40;;;;;;;8.47;2.43;;;22.60;99.90;;;;;;5062846;28;20486;-82
2022/06/13 10:50:11;;;;;;;6.00;2.30;;;23.40;99.90;;;;;;5059553;28;20474;-83
2022/06/13 10:52:41;;;;;;;7.63;2.27;;;23.90;99.90;;;;;;5062534;28;20471;-83
2022/06/13 10:55:11;;;;;;;6.13;2.20;;;24.10;99.90;;;;;;5059850;28;20446;-83
2022/06/13 10:57:42;;;;;;;4.83;2.27;;;24.30;99.90;;;;;;5061366;28;20458;-82
2022/06/13 11:00:14;;;;;;;7.50;2.00;;;24.80;99.90;;;;;;5060838;28;20550;-80
2022/06/13 11:02:41;;;;;;;7.83;2.20;;;25.20;99.90;;;;;;5059669;28;20668;-81
2022/06/13 11:05:12;;;;;;;6.80;1.90;;;25.50;99.90;;;;;;5059187;28;20462;-82
2022/06/13 11:07:47;;;;;;;6.97;1.93;;;25.70;99.90;;;;;;5058421;28;20510;-82
2022/06/13 11:10:34;;;;;;;3.57;2.03;;;25.20;99.90;;;;;;5056104;28;20557;-83
2022/06/13 11:13:03;;;;;;;4.30;1.63;;;24.20;99.90;;;;;;5055230;28;20520;-80
2022/06/13 11:24:12;;;;;;;5.40;1.50;;;21.70;99.90;;;;;;5054611;28;20554;-81
2022/06/13 11:29:27;;;;;;;3.50;1.80;;;21.70;99.90;;;;;;5054708;28;20491;-80
2022/06/13 11:31:56;;;;;;;3.83;1.60;;;21.50;99.90;;;;;;5055979;28;20444;-80
2022/06/13 11:34:29;;;;;;;4.53;1.67;;;21.30;99.90;;;;;;5054826;28;20458;-82
2022/06/13 11:37:04;;;;;;;2.93;1.10;;;22.00;99.90;;;;;;5055459;28;20812;-81
2022/06/13 11:39:34;;;;;;;4.70;1.37;;;23.00;99.90;;;;;;5054712;28;20468;-82
2022/06/13 11:42:01;;;;;;;4.47;2.47;;;23.70;99.90;;;;;;5054945;28;20488;-81
2022/06/13 11:44:29;;;;;;;4.37;1.53;;;24.40;99.90;;;;;;5054999;28;20541;-80
2022/06/13 11:46:59;;;;;;;4.63;1.40;;;24.80;99.90;;;;;;5055061;28;20519;-83
2022/06/13 11:49:37;;;;;;;2.90;1.10;;;25.00;99.90;;;;;;5055588;28;20582;-81
2022/06/13 11:55:25;;;;;;;4.63;1.23;;;25.30;99.90;;;;;;5059747;28;20423;-83
2022/06/13 11:57:56;;;;;;;3.93;1.03;;;25.40;99.90;;;;;;5059575;28;20444;-82
2022/06/13 12:00:33;;;;;;;3.60;1.07;;;26.00;99.90;;;;;;5060781;28;20883;-83
2022/06/13 12:03:16;;;;;;;5.10;1.17;;;26.20;99.90;;;;;;5059094;28;20462;-82
2022/06/13 12:05:43;;;;;;;3.00;1.10;;;25.90;99.90;;;;;;5060057;28;20573;-82
2022/06/13 12:08:21;;;;;;;3.50;1.10;;;25.50;99.90;;;;;;5059602;28;20578;-82
2022/06/13 12:10:58;;;;;;;2.67;1.10;;;24.80;99.90;;;;;;5059989;28;20499;-83
2022/06/13 12:13:26;;;;;;;4.80;1.40;;;24.20;99.90;;;;;;5059244;28;20534;-84
2022/06/13 12:16:11;;;;;;;1.90;0.83;;;24.20;99.90;;;;;;5059825;28;20546;-83
2022/06/13 12:18:49;;;;;;;2.63;1.00;;;23.90;99.90;;;;;;5059896;28;20531;-82
2022/06/13 12:21:23;;;;;;;3.80;1.20;;;23.60;99.90;;;;;;5060192;28;20510;-80
2022/06/13 12:23:58;;;;;;;3.77;1.23;;;23.00;99.90;;;;;;5059474;28;20523;-80
2022/06/13 12:26:31;;;;;;;4.53;1.10;;;22.70;99.90;;;;;;5059989;28;20466;-80
2022/06/13 12:29:16;;;;;;;2.67;1.23;;;22.90;99.90;;;;;;5060365;28;20573;-83
2022/06/13 12:31:49;;;;;;;2.10;0.83;;;23.60;99.90;;;;;;5061803;28;20516;-82
2022/06/13 12:34:24;;;;;;;6.00;1.30;;;24.60;99.90;;;;;;5071412;28;20855;-83
2022/06/13 12:37:03;;;;;;;8.23;1.47;;;24.90;99.90;;;;;;5072975;28;20473;-82
2022/06/13 12:39:47;;;;;;;5.00;1.20;;;24.50;99.90;;;;;;5061994;28;20485;-83
2022/06/13 12:42:39;;;;;;;3.77;1.20;;;23.80;99.90;;;;;;5059436;28;20451;-83
2022/06/13 12:45:29;;;;;;;5.53;0.90;;;23.20;99.90;;;;;;5058813;28;20479;-82
2022/06/13 12:48:10;;;;;;;4.00;1.10;;;23.00;99.90;;;;;;5058891;28;20513;-82
2022/06/13 12:50:49;;;;;;;2.93;1.10;;;23.00;99.90;;;;;;5058859;28;20482;-83
2022/06/13 12:53:36;;;;;;;2.67;0.80;;;22.90;99.90;;;;;;5058909;28;20450;-82
2022/06/13 12:56:10;;;;;;;5.20;1.00;;;22.40;99.90;;;;;;5058644;28;20530;-83
2022/06/13 12:58:51;;;;;;;2.67;0.90;;;22.20;99.90;;;;;;5058253;28;20527;-82
2022/06/13 13:01:21;;;;;;;3.13;1.00;;;22.90;99.90;;;;;;5058421;28;20563;-83
2022/06/13 13:04:24;;;;;;;4.93;1.13;;;24.50;99.90;;;;;;5056823;28;20448;-82
2022/06/13 13:06:58;;;;;;;3.00;1.40;;;25.20;99.90;;;;;;5058729;28;20474;-83
2022/06/13 13:09:48;;;;;;;2.37;1.03;;;25.70;99.90;;;;;;5058310;28;20499;-83
2022/06/13 13:12:41;;;;;;;2.73;0.90;;;26.30;99.90;;;;;;5059036;28;20534;-83
2022/06/13 13:15:17;;;;;;;2.67;1.00;;;27.10;99.90;;;;;;5058577;28;20974;-83
2022/06/13 13:17:51;;;;;;;5.07;1.23;;;27.60;97.70;;;;;;5058680;28;20527;-84
2022/06/13 13:20:23;;;;;;;6.13;1.10;;;27.00;94.60;;;;;;5059053;28;20545;-84
2022/06/13 13:22:56;;;;;;;4.30;1.20;;;25.70;94.50;;;;;;5058265;28;20501;-82
2022/06/13 13:25:30;;;;;;;3.53;1.20;;;25.30;96.40;;;;;;5059426;28;20482;-83
2022/06/13 13:28:06;;;;;;;3.97;1.33;;;25.00;98.30;;;;;;5058855;28;20544;-83
2022/06/13 13:30:44;;;;;;;2.70;1.10;;;24.30;97.40;;;;;;5058638;28;20511;-82
2022/06/13 13:33:23;;;;;;;4.57;1.53;;;23.90;96.90;;;;;;5058121;28;20432;-82
2022/06/13 13:35:55;;;;;;;4.27;1.40;;;24.70;99.90;;;;;;5058141;28;20979;-83
2022/06/13 13:38:27;;;;;;;3.57;1.03;;;26.00;99.90;;;;;;5058709;28;20522;-83